Overview Statistics Trail Chart Weather Telemetry Raw packets
 

This is the latest recevied weather packets stored in our database for station/object KO4YAW. If no packets are shown the sender has not sent any weather packets the latest 10 day(s).

<< 22 23 24 25 26 27 28 >>
Time Temp. Humidity Pressure Rain* Wind** Luminosity Snow
1788153521 21.67° C 48% 1021.7 hPa 0 mm - 0 W/m² -
1788152621 20.56° C 53% 1021.6 hPa 0 mm - 0 W/m² -
1788151721 20° C 59% 1021.5 hPa 0 mm - 0 W/m² -
1788150804 19.44° C 64% 1021.2 hPa 0 mm - 0 W/m² -
1788149904 19.44° C 65% 1020.9 hPa 0 mm - 0 W/m² -
1788149004 19.44° C 64% 1020.6 hPa 0 mm - 0 W/m² -
1788148104 19.44° C 63% 1020.5 hPa 0 mm - 0 W/m² -
1788147204 19.44° C 64% 1021 hPa 0 mm - 0 W/m² -
1788146304 19.44° C 66% 1021 hPa 0 mm - 0 W/m² -
1788145404 19.44° C 66% 1020.8 hPa 0 mm - 0 W/m² -
1788144504 19.44° C 66% 1020.5 hPa 0 mm - 0 W/m² -
1788143604 19.44° C 66% 1020.2 hPa 0 mm - 0 W/m² -
1788142704 20° C 63% 1020.1 hPa 0 mm - 0 W/m² -
1788141804 20.56° C 58% 1019.7 hPa 0 mm - 0 W/m² -
1788140904 21.11° C 55% 1019.8 hPa 0 mm - 1 W/m² -
1788140004 21.67° C 53% 1019.7 hPa 0 mm - 3 W/m² -
1788139104 22.22° C 51% 1019.5 hPa 0 mm - 17 W/m² -
1788138204 22.78° C 50% 1019.6 hPa 0 mm - 38 W/m² -
1788137304 22.78° C 50% 1019.7 hPa 0 mm - 59 W/m² -
1788136404 23.33° C 50% 1019.8 hPa 0 mm - 128 W/m² -
1788135504 22.78° C 50% 1019.7 hPa 0 mm - 202 W/m² -
1788134604 21.67° C 55% 1019.9 hPa 0 mm - 137 W/m² -
1788133704 20.56° C 59% 1020.2 hPa 0 mm - 104 W/m² -
1788132804 20° C 62% 1020.2 hPa 0 mm - 83 W/m² -
1788131904 21.11° C 59% 1020.4 hPa 0 mm - 59 W/m² -

* Rain since midnight (hover to see other rain measurements)
** Current wind speed in m/s (hover to see current wind gust speed)